Terminal Aerodrome Forecast
Issued by NWS

Home | Current Version | Previous Version | Text Only | Print | Product List | Glossary On
Versions: 1 2 3 4 5 6 7 8 9 10 11 12 13 14 15 16 17 18
000
FTUS44 KMAF 210500
TAFFST
TAF
KFST 210522Z 2106/2206 15008KT P6SM SCT040 BKN070
     FM210700 14008KT P6SM OVC025
      TEMPO 2107/2111 5SM SHRA BR
     FM211100 12007KT P6SM OVC015
      TEMPO 2111/2114 2SM TSRA BR BKN005 OVC025CB
     FM211400 10009KT P6SM OVC020
      TEMPO 2114/2118 2SM TSRA BR BKN005 OVC025CB=

USA.gov is the U.S. government's official web portal to all federal, state and local government web resources and services.